Aviation Digital Data Service (ADDS)

Output produced by METARs form (1059 UTC 19 June 2019)
found at http://www.aviationweather.gov/metar/data/
 
WABB 191000Z 21004KT 9999 FEW018 29/25 Q1008 NOSIG
TAF WABB 190500Z 1906/2012 25010KT 9999 FEW018
       
WAAA 191030Z 10004KT 8000 FEW019 28/23 Q1009 NOSIG
TAF WAAA 190500Z 1906/2012 33010KT 9999 FEW018 
     BECMG 1910/1912 11005KT 8000 
     BECMG 1914/1916 17005KT 
     BECMG 1921/1923 9999
       
WAPP 190930Z 16003KT 090V200 9999 SCT017 26/23 Q1010 NOSIG
TAF WAPP 190500Z 1906/2006 16007KT 9999 SCT018 
     BECMG 1909/1911 34005KT
       
TAF WIMM 190500Z 1906/2006 09010KT 9000 SCT018 
     BECMG 1912/1914 VRB05KT 5000 HZ FEW017CB SCT018 
     BECMG 2002/2004 8000 SCT018
       
WAMM 191030Z 11005KT 9999 FEW021 27/23 Q1008 NOSIG
TAF WAMM 190500Z 1906/2012 33007KT 9999 SCT022 
     PROB40 
     TEMPO 1906/1909 6000 -RA SCT018 
     BECMG 1911/1912 15004KT FEW022 
     BECMG 1923/2001 27005KT
       
WIII 191030Z 07010KT 9000 FEW020 29/21 Q1008 NOSIG
TAF WIII 190500Z 1906/2012 08010KT 8000 FEW021 
     BECMG 1914/1916 VRB02KT 
     BECMG 2002/2004 06010KT
       
TAF WITT 190500Z 1906/2006 16006KT 9999 SCT018 
     BECMG 1908/1910 28012KT 
     BECMG 1913/1915 VRB04KT 7000
       
WIPP 191030Z 07003KT 9999 FEW010 28/25 Q1008
TAF WIPP 190500Z 1906/2006 13008KT 9999 SCT010 
     TEMPO 1921/2001 5000 BR
       
WIBB 191030Z 14005KT 8000 FEW013 30/25 Q1006
WIOO 191030Z 32003KT 8000 BKN011 24/23 Q1009 NOSIG